»·PEaware :: SKY732 KFHR-KORS

SKY732 :: KFHR-KORS

FLIGHT INFORMATION

Flight Status: Arrived
Operator:
Sky High Charters
More flights by this operator :: More flights under this callsign
Pilot: Scott G. (88)
Aircraft: BEECH AIRCRAFT BARON
(BE58)
More flights by this aircraft type
Origin: KFHR Friday Harbor
United States
Destination: KORS Orcas Island
United States
More flights between these airports :: More routes between these airports
Route: FHR CANDL
File this flight plan on PilotEdge
Remarks:
Altitude:
(Current/Filed)
5,000ft
Speed:
(Current/Filed)
180kts
Departed: 30-May-20 11:18 AM
Arrived: 30-May-20 11:43 AM
Distance/Time
Traveled:
12nm/0:25
Distance/Time
To Go:
Arrived

Flight Plot

Page will automatically refresh every two minutes.

Flight plan parsing failed; only flown route is shown


Map Options




Map Legend


Flown Route
Filed Route
Departure Airport
Arrival Airport
Navaid (VOR, NDB)
Fix

Horizontal Profiles

Position Reports

Time Latitude Longitude Heading Altitude Ground
Speed
30-May-20 10:55 48.524571 -123.026048 150 116ft 0kts
30-May-20 10:56 48.524571 -123.026048 150 116ft 0kts
30-May-20 10:56 48.524571 -123.026048 150 116ft 0kts
30-May-20 10:58 48.524571 -123.026048 150 116ft 0kts
30-May-20 10:59 48.524571 -123.026048 150 116ft 0kts
30-May-20 10:59 48.524571 -123.026048 150 116ft 0kts
30-May-20 11:00 48.524571 -123.026048 150 116ft 0kts
30-May-20 11:02 48.524571 -123.026048 150 116ft 0kts
30-May-20 11:02 48.524571 -123.026048 150 116ft 0kts
30-May-20 11:03 48.524571 -123.026048 150 116ft 0kts
30-May-20 11:04 48.524571 -123.026048 150 116ft 0kts
30-May-20 11:05 48.524571 -123.026048 150 116ft 0kts
30-May-20 11:06 48.524571 -123.026048 150 116ft 0kts
30-May-20 11:07 48.524571 -123.026048 150 116ft 0kts
30-May-20 11:08 48.524571 -123.026048 150 116ft 0kts
30-May-20 11:09 48.524571 -123.026048 150 116ft 0kts
30-May-20 11:10 48.524629 -123.025568 29 116ft 10kts
30-May-20 11:11 48.526377 -123.025310 3 116ft 0kts
30-May-20 11:12 48.526377 -123.025310 3 116ft 0kts
30-May-20 11:13 48.526377 -123.025310 3 116ft 0kts
30-May-20 11:14 48.526377 -123.025310 3 116ft 0kts
30-May-20 11:15 48.526403 -123.025307 4 116ft 1kts
30-May-20 11:16 48.526325 -123.024699 173 116ft 0kts
30-May-20 11:17 48.510977 -123.023636 179 783ft 99kts
30-May-20 11:18 48.500856 -123.006765 329 2380ft 135kts
30-May-20 11:19 48.533323 -123.031879 19 3848ft 135kts
30-May-20 11:20 48.560227 -122.993767 48 5038ft 146kts
30-May-20 11:21 48.600291 -122.958654 17 5029ft 181kts
30-May-20 11:22 48.648518 -122.937109 16 5015ft 179kts
30-May-20 11:23 48.694321 -122.909315 52 5007ft 176kts
30-May-20 11:24 48.695584 -122.840345 93 5013ft 170kts
30-May-20 11:25 48.701024 -122.768487 86 5010ft 170kts
30-May-20 11:26 48.707319 -122.699857 86 4998ft 162kts
30-May-20 11:27 48.721368 -122.644393 36 4936ft 164kts
30-May-20 11:28 48.767302 -122.657276 328 3745ft 192kts
30-May-20 11:29 48.817627 -122.691135 337 2219ft 198kts
30-May-20 11:30 48.862098 -122.718623 338 1886ft 146kts
30-May-20 11:31 48.895793 -122.739395 338 2019ft 130kts
30-May-20 11:32 48.930231 -122.755727 345 1999ft 129kts
30-May-20 11:33 48.953549 -122.733262 104 1989ft 122kts
30-May-20 11:34 48.925753 -122.727894 209 2005ft 123kts
30-May-20 11:35 48.897166 -122.757833 210 1906ft 126kts
30-May-20 11:36 48.868093 -122.783941 209 1908ft 120kts
30-May-20 11:37 48.839213 -122.809505 208 1913ft 118kts
30-May-20 11:38 48.810985 -122.834431 209 1915ft 115kts
30-May-20 11:39 48.782343 -122.859706 209 1611ft 124kts
30-May-20 11:40 48.751990 -122.886469 210 992ft 123kts
30-May-20 11:41 48.724705 -122.910278 202 264ft 97kts
30-May-20 11:42 48.704733 -122.910610 182 28ft 14kts
30-May-20 11:43 48.704630 -122.909990 355 28ft 0kts
30-May-20 11:44 48.704635 -122.909991 354 28ft 0kts
30-May-20 11:45 48.705452 -122.909601 356 28ft 0kts
30-May-20 11:46 48.705452 -122.909601 356 28ft 0kts
30-May-20 11:47 48.705452 -122.909601 356 28ft 0kts
30-May-20 11:48 48.705452 -122.909601 356 28ft 0kts
30-May-20 11:49 48.705452 -122.909601 356 28ft 0kts
30-May-20 11:50 48.705452 -122.909601 356 28ft 0kts
30-May-20 11:51 48.705452 -122.909601 356 28ft 0kts
30-May-20 11:52 48.705452 -122.909601 356 28ft 0kts
30-May-20 11:53 48.705452 -122.909601 356 28ft 0kts
30-May-20 11:54 48.705452 -122.909601 356 28ft 0kts

Navigation Log

Ident Type
Flight plan parsing failed, navigation log unavailable